PWSweather.com
Personal Weather Stations
Station Observations
KJ4AJP
Beautiful Downtown Gardner, Martin, TN 38237

Beautiful Downtown GardnerMartin, TN 38237

Lat: 36.358, Lon: -88.8994

Elevation: 384.3

Station Type: TP1080WC

http://weather.mambm.com/

High Low Average
Temperature 52.0°F11.1°C 35.4°F1.9°C 44.1°F6.7°C
Dew Point 47.9°F8.8°C 35.2°F1.8°C 42.9°F6.1°C
Winds 14.5 mph 23.3 kmh 0.7 mph 1.1 kmh 4.0 mph S6.4 kmh S
Wind Gusts 25.9 mph41.7 kmh 4.5 mph7.2 kmh 12.0 mph19.3 kmh
Humidity 99% 86% 96%
Pressure 30.10 in1019.3 mb 29.83 in1010.2 mb -
Precipitation 0.19 in4.8 mm - -
Hour Temp Dew Point Humidity Winds Wind Gusts Pressure Precip Precip Rate Daily Precip Total
12:00 AM 52.0°F11.1°C 47.9°F8.8°C 86% 2.2 mph NE3.5 kmh NE 8.3 mph13.4 kmh 29.86 in1011.2 mb 0.00 in0.0 mm 0.00 in0.0 mm 0.00 in0.0 mm
12:15 AM 51.6°F10.9°C 47.9°F8.8°C 87% 2.2 mph NE3.5 kmh NE 7.6 mph12.2 kmh 29.86 in1011.2 mb 0.00 in0.0 mm 0.00 in0.0 mm 0.00 in0.0 mm
12:30 AM 51.6°F10.9°C 47.9°F8.8°C 87% 2.2 mph ENE3.5 kmh ENE 7.6 mph12.2 kmh 29.86 in1011.2 mb 0.00 in0.0 mm 0.00 in0.0 mm 0.00 in0.0 mm
12:45 AM 51.6°F10.9°C 47.9°F8.8°C 87% 3.1 mph ENE5.0 kmh ENE 9.2 mph14.8 kmh 29.86 in1011.2 mb 0.00 in0.0 mm 0.00 in0.0 mm 0.00 in0.0 mm
01:00 AM 51.3°F10.7°C 47.8°F8.8°C 88% 3.1 mph NE5.0 kmh NE 7.6 mph12.2 kmh 29.86 in1011.2 mb 0.00 in0.0 mm 0.00 in0.0 mm 0.00 in0.0 mm
01:15 AM 51.1°F10.6°C 47.7°F8.7°C 88% 1.6 mph NNE2.6 kmh NNE 6.9 mph11.1 kmh 29.86 in1011.2 mb 0.00 in0.0 mm 0.00 in0.0 mm 0.00 in0.0 mm
01:30 AM 50.9°F10.5°C 47.5°F8.6°C 88% 1.6 mph NE2.6 kmh NE 6.0 mph9.7 kmh 29.86 in1011.2 mb 0.00 in0.0 mm 0.00 in0.0 mm 0.00 in0.0 mm
01:45 AM 50.9°F10.5°C 47.8°F8.8°C 89% 1.6 mph NNE2.6 kmh NNE 6.0 mph9.7 kmh 29.86 in1011.2 mb 0.00 in0.0 mm 0.00 in0.0 mm 0.00 in0.0 mm
02:00 AM 50.9°F10.5°C 47.8°F8.8°C 89% 3.1 mph ENE5.0 kmh ENE 7.6 mph12.2 kmh 29.86 in1011.2 mb 0.00 in0.0 mm 0.00 in0.0 mm 0.00 in0.0 mm
02:15 AM 50.9°F10.5°C 47.8°F8.8°C 89% 2.2 mph NE3.5 kmh NE 8.3 mph13.4 kmh 29.87 in1011.5 mb 0.00 in0.0 mm 0.00 in0.0 mm 0.00 in0.0 mm
02:30 AM 50.7°F10.4°C 47.6°F8.7°C 89% 3.1 mph NE5.0 kmh NE 9.2 mph14.8 kmh 29.86 in1011.2 mb 0.00 in0.0 mm 0.00 in0.0 mm 0.00 in0.0 mm
02:45 AM 50.5°F10.3°C 47.4°F8.6°C 89% 5.4 mph NNE8.7 kmh NNE 8.3 mph13.4 kmh 29.85 in1010.8 mb 0.00 in0.0 mm 0.00 in0.0 mm 0.00 in0.0 mm
03:00 AM 50.4°F10.2°C 47.2°F8.4°C 89% 3.1 mph NE5.0 kmh NE 9.8 mph15.8 kmh 29.84 in1010.5 mb 0.00 in0.0 mm 0.00 in0.0 mm 0.00 in0.0 mm
03:15 AM 50.0°F10.0°C 46.9°F8.3°C 89% 2.2 mph NNE3.5 kmh NNE 6.9 mph11.1 kmh 29.85 in1010.8 mb 0.00 in0.0 mm 0.00 in0.0 mm 0.00 in0.0 mm
03:30 AM 49.5°F9.7°C 46.7°F8.2°C 90% 4.5 mph NE7.2 kmh NE 13.0 mph20.9 kmh 29.85 in1010.8 mb 0.00 in0.0 mm 0.00 in0.0 mm 0.00 in0.0 mm
03:45 AM 49.1°F9.5°C 46.3°F7.9°C 90% 2.2 mph NE3.5 kmh NE 8.3 mph13.4 kmh 29.84 in1010.5 mb 0.00 in0.0 mm 0.00 in0.0 mm 0.00 in0.0 mm
04:00 AM 48.7°F9.3°C 46.2°F7.9°C 91% 3.1 mph NE5.0 kmh NE 12.1 mph19.5 kmh 29.84 in1010.5 mb 0.00 in0.0 mm 0.00 in0.0 mm 0.00 in0.0 mm
04:15 AM 48.2°F9.0°C 45.7°F7.6°C 91% 3.8 mph ENE6.1 kmh ENE 10.7 mph17.2 kmh 29.83 in1010.2 mb 0.00 in0.0 mm 0.00 in0.0 mm 0.00 in0.0 mm
04:30 AM 47.7°F8.7°C 45.5°F7.5°C 92% 6.0 mph ENE9.7 kmh ENE 9.2 mph14.8 kmh 29.85 in1010.8 mb 0.00 in0.0 mm 0.00 in0.0 mm 0.00 in0.0 mm
04:45 AM 47.5°F8.6°C 45.3°F7.4°C 92% 1.6 mph NE2.6 kmh NE 6.0 mph9.7 kmh 29.86 in1011.2 mb 0.00 in0.0 mm 0.00 in0.0 mm 0.00 in0.0 mm
05:00 AM 47.1°F8.4°C 45.2°F7.3°C 93% 0.7 mph NE1.1 kmh NE 6.0 mph9.7 kmh 29.86 in1011.2 mb 0.00 in0.0 mm 0.00 in0.0 mm 0.00 in0.0 mm
05:15 AM 46.9°F8.3°C 45.0°F7.2°C 93% 1.6 mph NE2.6 kmh NE 5.4 mph8.7 kmh 29.86 in1011.2 mb 0.00 in0.0 mm 0.00 in0.0 mm 0.00 in0.0 mm
05:30 AM 47.1°F8.4°C 45.2°F7.3°C 93% 2.2 mph NE3.5 kmh NE 4.5 mph7.2 kmh 29.86 in1011.2 mb 0.00 in0.0 mm 0.00 in0.0 mm 0.00 in0.0 mm
05:45 AM 47.3°F8.5°C 45.4°F7.4°C 93% 3.1 mph NE5.0 kmh NE 9.2 mph14.8 kmh 29.86 in1011.2 mb 0.00 in0.0 mm 0.00 in0.0 mm 0.00 in0.0 mm
06:00 AM 47.3°F8.5°C 45.4°F7.4°C 93% 3.8 mph ENE6.1 kmh ENE 9.2 mph14.8 kmh 29.86 in1011.2 mb 0.00 in0.0 mm 0.00 in0.0 mm 0.00 in0.0 mm
06:15 AM 47.1°F8.4°C 45.2°F7.3°C 93% 3.8 mph NE6.1 kmh NE 8.3 mph13.4 kmh 29.85 in1010.8 mb 0.00 in0.0 mm 0.00 in0.0 mm 0.00 in0.0 mm
06:30 AM 46.8°F8.2°C 44.8°F7.1°C 93% 2.2 mph NE3.5 kmh NE 6.9 mph11.1 kmh 29.87 in1011.5 mb 0.00 in0.0 mm 0.00 in0.0 mm 0.00 in0.0 mm
06:45 AM 46.8°F8.2°C 44.8°F7.1°C 93% 3.1 mph NE5.0 kmh NE 8.3 mph13.4 kmh 29.88 in1011.9 mb 0.00 in0.0 mm 0.00 in0.0 mm 0.00 in0.0 mm
07:00 AM 46.8°F8.2°C 44.8°F7.1°C 93% 0.7 mph NNE1.1 kmh NNE 8.3 mph13.4 kmh 29.90 in1012.5 mb 0.00 in0.0 mm 0.00 in0.0 mm 0.00 in0.0 mm
07:15 AM 46.9°F8.3°C 45.0°F7.2°C 93% 3.1 mph NE5.0 kmh NE 7.6 mph12.2 kmh 29.89 in1012.2 mb 0.00 in0.0 mm 0.00 in0.0 mm 0.00 in0.0 mm
07:30 AM 47.1°F8.4°C 45.2°F7.3°C 93% 3.1 mph NE5.0 kmh NE 8.3 mph13.4 kmh 29.88 in1011.9 mb 0.00 in0.0 mm 0.00 in0.0 mm 0.00 in0.0 mm
07:45 AM 47.3°F8.5°C 45.4°F7.4°C 93% 1.6 mph NE2.6 kmh NE 10.7 mph17.2 kmh 29.87 in1011.5 mb 0.00 in0.0 mm 0.00 in0.0 mm 0.00 in0.0 mm
08:00 AM 47.5°F8.6°C 45.3°F7.4°C 92% 3.8 mph NE6.1 kmh NE 13.0 mph20.9 kmh 29.88 in1011.9 mb 0.00 in0.0 mm 0.00 in0.0 mm 0.00 in0.0 mm
08:15 AM 47.7°F8.7°C 45.5°F7.5°C 92% 0.7 mph NE1.1 kmh NE 8.3 mph13.4 kmh 29.88 in1011.9 mb 0.00 in0.0 mm 0.00 in0.0 mm 0.00 in0.0 mm
08:30 AM 47.7°F8.7°C 45.7°F7.6°C 93% 6.0 mph NE9.7 kmh NE 12.1 mph19.5 kmh 29.88 in1011.9 mb 0.00 in0.0 mm 0.00 in0.0 mm 0.00 in0.0 mm
08:45 AM 47.8°F8.8°C 45.9°F7.7°C 93% 3.1 mph NNE5.0 kmh NNE 7.6 mph12.2 kmh 29.89 in1012.2 mb 0.00 in0.0 mm 0.00 in0.0 mm 0.00 in0.0 mm
09:00 AM 47.8°F8.8°C 45.9°F7.7°C 93% 4.5 mph NE7.2 kmh NE 9.8 mph15.8 kmh 29.88 in1011.9 mb 0.00 in0.0 mm 0.00 in0.0 mm 0.00 in0.0 mm
09:15 AM 47.8°F8.8°C 46.2°F7.9°C 94% 3.1 mph NNE5.0 kmh NNE 9.8 mph15.8 kmh 29.90 in1012.5 mb 0.00 in0.0 mm 0.00 in0.0 mm 0.00 in0.0 mm
09:30 AM 47.7°F8.7°C 46.0°F7.8°C 94% 2.2 mph N3.5 kmh N 5.4 mph8.7 kmh 29.90 in1012.5 mb 0.00 in0.0 mm 0.00 in0.0 mm 0.00 in0.0 mm
09:45 AM 47.3°F8.5°C 45.9°F7.7°C 95% 3.1 mph N5.0 kmh N 6.0 mph9.7 kmh 29.89 in1012.2 mb 0.00 in0.0 mm 0.00 in0.0 mm 0.00 in0.0 mm
10:00 AM 47.1°F8.4°C 46.0°F7.8°C 96% 3.8 mph NE6.1 kmh NE 9.2 mph14.8 kmh 29.88 in1011.9 mb 0.00 in0.0 mm 0.00 in0.0 mm 0.00 in0.0 mm
10:15 AM 47.5°F8.6°C 46.7°F8.2°C 97% 1.6 mph NE2.6 kmh NE 7.6 mph12.2 kmh 29.88 in1011.9 mb 0.00 in0.0 mm 0.00 in0.0 mm 0.00 in0.0 mm
10:30 AM 47.8°F8.8°C 47.0°F8.3°C 97% 1.6 mph N2.6 kmh N 4.5 mph7.2 kmh 29.88 in1011.9 mb 0.00 in0.0 mm 0.00 in0.0 mm 0.00 in0.0 mm
10:45 AM 48.0°F8.9°C 46.9°F8.3°C 96% 4.5 mph N7.2 kmh N 6.9 mph11.1 kmh 29.88 in1011.9 mb 0.00 in0.0 mm 0.00 in0.0 mm 0.00 in0.0 mm
11:00 AM 47.7°F8.7°C 46.9°F8.3°C 97% 6.9 mph NNW11.1 kmh NNW 9.2 mph14.8 kmh 29.88 in1011.9 mb 0.00 in0.0 mm 0.00 in0.0 mm 0.00 in0.0 mm
11:15 AM 47.1°F8.4°C 46.6°F8.1°C 98% 2.2 mph NNW3.5 kmh NNW 9.2 mph14.8 kmh 29.91 in1012.9 mb 0.00 in0.0 mm 0.00 in0.0 mm 0.00 in0.0 mm
11:30 AM 46.6°F8.1°C 46.3°F7.9°C 99% 0.7 mph NNE1.1 kmh NNE 4.5 mph7.2 kmh 29.88 in1011.9 mb 0.11 in2.8 mm 0.44 in11.2 mm 0.11 in2.8 mm
11:45 AM 46.6°F8.1°C 46.3°F7.9°C 99% 2.2 mph NNE3.5 kmh NNE 6.9 mph11.1 kmh 29.87 in1011.5 mb 0.13 in3.3 mm 0.08 in2.0 mm 0.13 in3.3 mm
12:00 PM 46.8°F8.2°C 46.5°F8.1°C 99% 1.6 mph NNW2.6 kmh NNW 9.8 mph15.8 kmh 29.88 in1011.9 mb 0.13 in3.3 mm 0.00 in0.0 mm 0.13 in3.3 mm
12:15 PM 46.9°F8.3°C 46.7°F8.2°C 99% 3.8 mph N6.1 kmh N 9.2 mph14.8 kmh 29.87 in1011.5 mb 0.13 in3.3 mm 0.00 in0.0 mm 0.13 in3.3 mm
12:30 PM 46.9°F8.3°C 46.7°F8.2°C 99% 2.2 mph NNW3.5 kmh NNW 7.6 mph12.2 kmh 29.86 in1011.2 mb 0.02 in0.5 mm 0.00 in0.0 mm 0.13 in3.3 mm
12:45 PM 46.9°F8.3°C 46.7°F8.2°C 99% 1.6 mph NNW2.6 kmh NNW 6.9 mph11.1 kmh 29.86 in1011.2 mb 0.00 in0.0 mm 0.00 in0.0 mm 0.13 in3.3 mm
01:00 PM 46.9°F8.3°C 46.7°F8.2°C 99% 2.2 mph NW3.5 kmh NW 6.0 mph9.7 kmh 29.87 in1011.5 mb 0.00 in0.0 mm 0.00 in0.0 mm 0.13 in3.3 mm
01:15 PM 46.6°F8.1°C 46.3°F7.9°C 99% 2.2 mph NW3.5 kmh NW 7.6 mph12.2 kmh 29.86 in1011.2 mb 0.00 in0.0 mm 0.00 in0.0 mm 0.13 in3.3 mm
01:30 PM 45.7°F7.6°C 45.4°F7.4°C 99% 2.2 mph NW3.5 kmh NW 11.4 mph18.3 kmh 29.87 in1011.5 mb 0.01 in0.3 mm 0.04 in1.0 mm 0.14 in3.6 mm
01:45 PM 44.8°F7.1°C 44.5°F6.9°C 99% 3.1 mph NNW5.0 kmh NNW 8.3 mph13.4 kmh 29.88 in1011.9 mb 0.01 in0.3 mm 0.00 in0.0 mm 0.14 in3.6 mm
02:00 PM 43.7°F6.5°C 43.4°F6.3°C 99% 6.0 mph NNW9.7 kmh NNW 14.5 mph23.3 kmh 29.89 in1012.2 mb 0.01 in0.3 mm 0.00 in0.0 mm 0.14 in3.6 mm
02:15 PM 42.3°F5.7°C 42.0°F5.6°C 99% 5.4 mph NNW8.7 kmh NNW 13.6 mph21.9 kmh 29.90 in1012.5 mb 0.02 in0.5 mm 0.04 in1.0 mm 0.15 in3.8 mm
02:30 PM 41.5°F5.3°C 41.3°F5.2°C 99% 7.6 mph N12.2 kmh N 25.9 mph41.7 kmh 29.87 in1011.5 mb 0.04 in1.0 mm 0.08 in2.0 mm 0.18 in4.6 mm
02:45 PM 42.3°F5.7°C 42.0°F5.6°C 99% 10.7 mph NNE17.2 kmh NNE 19.0 mph30.6 kmh 29.89 in1012.2 mb 0.04 in1.0 mm 0.00 in0.0 mm 0.18 in4.6 mm
03:00 PM 41.7°F5.4°C 41.5°F5.3°C 99% 8.3 mph N13.4 kmh N 13.0 mph20.9 kmh 29.91 in1012.9 mb 0.04 in1.0 mm 0.00 in0.0 mm 0.18 in4.6 mm
03:15 PM 41.5°F5.3°C 41.3°F5.2°C 99% 14.5 mph NNW23.3 kmh NNW 20.6 mph33.2 kmh 29.91 in1012.9 mb 0.02 in0.5 mm 0.00 in0.0 mm 0.18 in4.6 mm
03:30 PM 41.5°F5.3°C 41.3°F5.2°C 99% 3.8 mph NNW6.1 kmh NNW 6.9 mph11.1 kmh 29.92 in1013.2 mb 0.00 in0.0 mm 0.00 in0.0 mm 0.18 in4.6 mm
03:45 PM 41.2°F5.1°C 40.9°F4.9°C 99% 7.6 mph N12.2 kmh N 15.9 mph25.6 kmh 29.91 in1012.9 mb 0.00 in0.0 mm 0.00 in0.0 mm 0.18 in4.6 mm
04:00 PM 41.0°F5.0°C 40.7°F4.8°C 99% 9.2 mph N14.8 kmh N 17.4 mph28.0 kmh 29.91 in1012.9 mb 0.00 in0.0 mm 0.00 in0.0 mm 0.18 in4.6 mm
04:15 PM 40.5°F4.7°C 40.2°F4.6°C 99% 10.7 mph NNW17.2 kmh NNW 19.7 mph31.7 kmh 29.92 in1013.2 mb 0.00 in0.0 mm 0.00 in0.0 mm 0.18 in4.6 mm
04:30 PM 39.7°F4.3°C 39.5°F4.2°C 99% 6.9 mph N11.1 kmh N 24.4 mph39.3 kmh 29.92 in1013.2 mb 0.01 in0.3 mm 0.04 in1.0 mm 0.19 in4.8 mm
04:45 PM 39.6°F4.2°C 39.3°F4.1°C 99% 3.8 mph N6.1 kmh N 22.1 mph35.6 kmh 29.94 in1013.9 mb 0.01 in0.3 mm 0.00 in0.0 mm 0.19 in4.8 mm
05:00 PM 39.6°F4.2°C 39.3°F4.1°C 99% 9.2 mph N14.8 kmh N 18.3 mph29.5 kmh 29.94 in1013.9 mb 0.01 in0.3 mm 0.00 in0.0 mm 0.19 in4.8 mm
05:15 PM 39.0°F3.9°C 38.8°F3.8°C 99% 8.3 mph N13.4 kmh N 16.8 mph27.0 kmh 29.95 in1014.2 mb 0.00 in0.0 mm 0.00 in0.0 mm 0.19 in4.8 mm
05:30 PM 38.7°F3.7°C 38.4°F3.6°C 99% 7.6 mph N12.2 kmh N 13.6 mph21.9 kmh 29.97 in1014.9 mb 0.00 in0.0 mm 0.00 in0.0 mm 0.19 in4.8 mm
05:45 PM 38.3°F3.5°C 38.0°F3.3°C 99% 9.8 mph N15.8 kmh N 21.3 mph34.3 kmh 29.98 in1015.2 mb 0.00 in0.0 mm 0.00 in0.0 mm 0.19 in4.8 mm
06:00 PM 38.1°F3.4°C 37.9°F3.3°C 99% 7.6 mph N12.2 kmh N 17.4 mph28.0 kmh 29.98 in1015.2 mb 0.00 in0.0 mm 0.00 in0.0 mm 0.19 in4.8 mm
06:15 PM 37.9°F3.3°C 37.7°F3.2°C 99% 9.8 mph N15.8 kmh N 23.5 mph37.8 kmh 30.00 in1015.9 mb 0.00 in0.0 mm 0.00 in0.0 mm 0.19 in4.8 mm
06:30 PM 37.6°F3.1°C 37.3°F2.9°C 99% 10.7 mph N17.2 kmh N 19.0 mph30.6 kmh 30.00 in1015.9 mb 0.00 in0.0 mm 0.00 in0.0 mm 0.19 in4.8 mm
06:45 PM 37.4°F3.0°C 37.1°F2.8°C 99% 5.4 mph NNW8.7 kmh NNW 16.8 mph27.0 kmh 30.01 in1016.3 mb 0.00 in0.0 mm 0.00 in0.0 mm 0.19 in4.8 mm
07:00 PM 37.0°F2.8°C 36.8°F2.7°C 99% 8.3 mph N13.4 kmh N 19.7 mph31.7 kmh 30.02 in1016.6 mb 0.00 in0.0 mm 0.00 in0.0 mm 0.19 in4.8 mm
07:15 PM 36.9°F2.7°C 36.6°F2.6°C 99% 8.3 mph NNW13.4 kmh NNW 17.4 mph28.0 kmh 30.03 in1016.9 mb 0.00 in0.0 mm 0.00 in0.0 mm 0.19 in4.8 mm
07:30 PM 37.4°F3.0°C 37.1°F2.8°C 99% 6.0 mph NNW9.7 kmh NNW 16.8 mph27.0 kmh 30.04 in1017.3 mb 0.00 in0.0 mm 0.00 in0.0 mm 0.19 in4.8 mm
07:45 PM 36.9°F2.7°C 36.6°F2.6°C 99% 5.4 mph NNW8.7 kmh NNW 16.8 mph27.0 kmh 30.05 in1017.6 mb 0.00 in0.0 mm 0.00 in0.0 mm 0.19 in4.8 mm
08:00 PM 36.5°F2.5°C 36.2°F2.3°C 99% 6.0 mph N9.7 kmh N 15.2 mph24.5 kmh 30.06 in1017.9 mb 0.00 in0.0 mm 0.00 in0.0 mm 0.19 in4.8 mm
08:15 PM 36.7°F2.6°C 36.4°F2.4°C 99% 4.5 mph NNW7.2 kmh NNW 11.4 mph18.3 kmh 30.06 in1017.9 mb 0.00 in0.0 mm 0.00 in0.0 mm 0.19 in4.8 mm
08:30 PM 36.9°F2.7°C 36.6°F2.6°C 99% 7.6 mph N12.2 kmh N 13.0 mph20.9 kmh 30.07 in1018.3 mb 0.00 in0.0 mm 0.00 in0.0 mm 0.19 in4.8 mm
08:45 PM 36.7°F2.6°C 36.4°F2.4°C 99% 6.0 mph NNW9.7 kmh NNW 17.4 mph28.0 kmh 30.07 in1018.3 mb 0.00 in0.0 mm 0.00 in0.0 mm 0.19 in4.8 mm
09:00 PM 36.5°F2.5°C 36.2°F2.3°C 99% 3.1 mph N5.0 kmh N 19.7 mph31.7 kmh 30.08 in1018.6 mb 0.00 in0.0 mm 0.00 in0.0 mm 0.19 in4.8 mm
09:15 PM 36.5°F2.5°C 36.2°F2.3°C 99% 3.8 mph N6.1 kmh N 16.8 mph27.0 kmh 30.08 in1018.6 mb 0.00 in0.0 mm 0.00 in0.0 mm 0.19 in4.8 mm
09:30 PM 36.7°F2.6°C 36.4°F2.4°C 99% 6.0 mph N9.7 kmh N 12.1 mph19.5 kmh 30.09 in1019.0 mb 0.00 in0.0 mm 0.00 in0.0 mm 0.19 in4.8 mm
09:45 PM 36.7°F2.6°C 36.4°F2.4°C 99% 6.0 mph NNW9.7 kmh NNW 15.9 mph25.6 kmh 30.09 in1019.0 mb 0.00 in0.0 mm 0.00 in0.0 mm 0.19 in4.8 mm
10:00 PM 36.7°F2.6°C 36.4°F2.4°C 99% 3.1 mph NW5.0 kmh NW 11.4 mph18.3 kmh 30.09 in1019.0 mb 0.00 in0.0 mm 0.00 in0.0 mm 0.19 in4.8 mm
10:15 PM 36.5°F2.5°C 36.2°F2.3°C 99% 4.5 mph N7.2 kmh N 15.9 mph25.6 kmh 30.09 in1019.0 mb 0.00 in0.0 mm 0.00 in0.0 mm 0.19 in4.8 mm
10:30 PM 36.3°F2.4°C 36.1°F2.3°C 99% 4.5 mph NNW7.2 kmh NNW 10.7 mph17.2 kmh 30.09 in1019.0 mb 0.00 in0.0 mm 0.00 in0.0 mm 0.19 in4.8 mm
10:45 PM 36.0°F2.2°C 35.7°F2.1°C 99% 4.5 mph NNW7.2 kmh NNW 16.8 mph27.0 kmh 30.10 in1019.3 mb 0.00 in0.0 mm 0.00 in0.0 mm 0.19 in4.8 mm
11:00 PM 35.8°F2.1°C 35.5°F1.9°C 99% 4.5 mph NNW7.2 kmh NNW 15.2 mph24.5 kmh 30.09 in1019.0 mb 0.00 in0.0 mm 0.00 in0.0 mm 0.18 in4.6 mm
11:15 PM 35.6°F2.0°C 35.4°F1.9°C 99% 3.8 mph NNW6.1 kmh NNW 8.3 mph13.4 kmh 30.10 in1019.3 mb 0.01 in0.3 mm 0.04 in1.0 mm 0.01 in0.3 mm
11:30 PM 35.4°F1.9°C 35.2°F1.8°C 99% 4.5 mph NNW7.2 kmh NNW 9.2 mph14.8 kmh 30.10 in1019.3 mb 0.01 in0.3 mm 0.00 in0.0 mm 0.01 in0.3 mm
11:45 PM 35.4°F1.9°C 35.2°F1.8°C 99% 6.9 mph NW11.1 kmh NW 13.0 mph20.9 kmh 30.10 in1019.3 mb 0.01 in0.3 mm 0.00 in0.0 mm 0.01 in0.3 mm